Date,TemperatureHighF,TemperatureAvgF,TemperatureLowF,DewpointHighF,DewpointAvgF,DewpointLowF,HumidityHigh,HumidityAvg,HumidityLow,PressureMaxIn,PressureMinIn,WindSpeedMaxMPH,WindSpeedAvgMPH,GustSpeedMaxMPH,PrecipitationSumIn
2013-8-1,86.8,75.9,64.8,71.7,67.0,62.2,93,75,56,30.02,29.90,6,1,6,0.00
2013-8-2,87.1,76.6,70.2,78.5,70.6,64.8,87,82,73,29.91,29.79,7,1,7,0.01
2013-8-3,86.0,76.6,68.6,76.4,71.9,66.5,94,86,68,30.01,29.78,8,1,8,1.32
2013-8-4,75.4,72.2,69.8,72.0,70.1,68.3,95,93,89,30.07,29.94,4,1,7,1.22
2013-8-5,85.5,75.8,70.4,81.0,73.3,68.9,95,92,83,29.96,29.75,8,1,8,0.21
2013-8-6,80.5,74.8,70.7,77.0,72.4,68.8,95,92,87,29.86,29.74,9,1,9,0.47
2013-8-7,81.9,75.4,70.6,77.0,72.9,68.8,96,92,81,29.88,29.73,9,1,9,0.34
2013-8-8,81.7,75.4,70.0,75.4,72.2,68.5,96,90,77,29.90,29.77,5,1,5,0.56
2013-8-9,79.7,75.1,71.8,73.8,71.1,68.0,94,88,77,29.96,29.84,6,1,6,0.04
2013-8-10,82.1,74.7,68.2,70.8,67.9,65.4,92,80,62,30.05,29.96,6,1,6,0.00
2013-8-11,84.2,76.0,69.1,76.1,70.6,65.6,90,84,76,30.03,29.93,5,1,5,0.00
2013-8-12,80.5,74.3,70.6,74.7,71.0,67.8,94,90,78,29.97,29.87,4,1,10,0.78
2013-8-13,81.5,73.6,67.7,71.1,67.1,62.2,94,81,62,29.99,29.90,8,1,8,0.00
2013-8-14,76.7,69.3,62.6,62.8,59.3,55.4,89,72,53,30.08,29.98,7,1,7,0.00
2013-8-15,75.1,63.4,55.6,59.3,55.0,50.8,87,75,55,30.04,29.94,4,1,4,0.00
2013-8-16,74.3,66.4,59.9,62.8,57.7,54.6,84,74,61,30.04,29.96,5,1,5,0.00
2013-8-17,78.8,67.7,56.5,64.2,59.3,53.0,90,75,58,30.06,29.97,5,1,5,0.00
2013-8-18,81.7,71.6,61.2,67.2,62.8,57.3,90,75,58,30.06,29.97,6,1,6,0.00
2013-8-19,84.1,73.4,62.5,70.4,64.3,59.2,91,75,52,30.04,29.93,5,1,5,0.00
2013-8-20,85.7,75.0,64.1,72.4,65.8,60.5,90,74,55,30.01,29.94,5,1,5,0.00
2013-8-21,87.5,76.6,65.0,74.0,67.4,61.0,89,74,57,30.04,29.95,6,1,6,0.00
2013-8-22,89.5,76.6,67.9,75.0,68.5,64.4,90,77,54,30.04,29.93,5,0,5,0.00
2013-8-23,89.8,79.1,67.9,76.0,70.1,64.4,89,75,54,30.01,29.93,4,1,4,0.01
2013-8-24,89.6,79.7,71.1,76.8,70.7,67.2,89,75,58,30.09,29.97,5,2,5,0.00
2013-8-25,90.2,79.3,69.1,76.2,69.9,65.5,90,74,53,30.14,30.05,5,1,5,0.00
2013-8-26,89.6,80.0,71.1,76.3,71.6,67.5,91,76,57,30.13,30.01,6,1,6,0.00
2013-8-27,89.3,79.3,69.5,72.6,69.1,65.7,88,72,52,30.04,29.94,6,1,6,0.00
2013-8-28,90.4,79.1,68.6,74.3,69.9,64.9,89,75,54,30.00,29.93,5,1,5,0.00
2013-8-29,91.8,81.0,70.2,76.5,72.3,66.6,90,76,57,30.00,29.90,4,0,4,0.00
2013-8-30,93.2,83.0,73.8,76.6,72.8,70.4,90,73,53,29.93,29.80,5,1,5,0.00
2013-8-31,95.0,83.3,73.1,75.0,72.2,69.3,88,71,49,29.83,29.72,8,1,8,0.00